Latest Weather Observations for Mardie

IDW60801

Issued at 11:32 am WST Sunday 30 August 2015 (issued every 30 minutes, with the page automatically refreshed every 10 minutes)

About weather observations | Map of weather stations | Latest weather observations for WA | Other Formats
Station Details ID: 005008 Name: MARDIE Lat: -21.19 Lon: 115.98 Height: 11.0 m
Data from the previous 72 hours. | See also: Recent months at Mardie
Date/Time
WST
Temp
°C
App
Temp
°C
Dew
Point
Rel
Hum
%
Delta-T
°C
Wind Press
QNH
hPa
Press
MSL
hPa
Rain
since 9 am
mm
Dir
 
Spd
km/h
Gust
km/h
Spd
kts
Gust
kts
30/11:30am 27.8 24.8 6.0 25 11.4 S 11 24 6 13 1017.8 1017.7 0.0
30/11:00am 27.4 23.9 7.3 28 10.7 SSW 15 22 8 12 1018.3 1018.2 0.0
30/10:30am 27.1 24.4 9.0 32 9.9 S 13 22 7 12 1018.6 1018.5 0.0
30/10:00am 25.8 23.6 10.8 39 8.4 SSW 13 20 7 11 1018.9 1018.8 0.0
30/09:30am 24.2 22.3 11.9 46 7.0 S 13 19 7 10 1018.9 1018.8 0.0
30/09:00am 22.1 20.9 12.9 56 5.2 S 11 17 6 9 1018.9 1018.8 0.0
30/08:30am 20.1 19.2 13.6 66 3.7 SSW 11 17 6 9 1018.8 1018.7 0.0
30/08:00am 18.4 18.2 14.7 79 2.1 SSW 9 13 5 7 1018.6 1018.5 0.0
30/07:30am 16.7 17.8 16.5 99 0.1 SW 6 11 3 6 1018.2 1018.1 0.0
30/07:00am 14.6 14.9 14.6 100 0.0 SW 6 7 3 4 1017.8 1017.7 0.0
30/06:30am 14.4 14.6 14.2 99 0.1 SW 6 7 3 4 1017.3 1017.2 0.0
30/06:00am 14.8 15.0 14.6 99 0.1 SW 7 9 4 5 1016.8 1016.8 0.0
30/05:30am 15.3 15.2 15.0 98 0.2 SW 9 13 5 7 1016.6 1016.6 0.0
30/05:00am 15.5 15.2 14.5 94 0.6 SW 9 13 5 7 1016.4 1016.4 0.0
30/04:30am 16.1 15.9 14.6 91 0.9 SW 9 13 5 7 1016.3 1016.3 0.0
30/04:00am 16.2 15.9 14.4 89 1.0 SW 9 13 5 7 1016.2 1016.2 0.0
30/03:30am 16.3 15.6 14.3 88 1.1 SW 11 13 6 7 1016.1 1016.1 0.0
30/03:00am 16.7 16.0 14.3 86 1.4 SW 11 15 6 8 1016.0 1016.0 0.0
30/02:30am 16.5 15.7 14.0 85 1.4 SW 11 13 6 7 1016.2 1016.2 0.0
30/02:00am 16.9 16.0 13.8 82 1.8 SW 11 13 6 7 1016.3 1016.3 0.0
30/01:30am 17.2 16.7 13.9 81 1.9 SSW 9 11 5 6 1016.2 1016.2 0.0
30/01:00am 17.8 17.0 14.1 79 2.1 SW 11 13 6 7 1016.4 1016.4 0.0
30/12:30am 18.3 18.0 14.4 78 2.2 SW 9 13 5 7 1016.6 1016.6 0.0
30/12:00am 19.1 18.5 14.6 75 2.6 SW 11 15 6 8 1016.6 1016.6 0.0
 
Date/Time
WST
Temp
°C
App
Temp
°C
Dew
Point
Rel
Hum
%
Delta-T
°C
Wind Press
QNH
hPa
Press
MSL
hPa
Rain
since 9 am
mm
Dir
 
Spd
km/h
Gust
km/h
Spd
kts
Gust
kts
29/11:30pm 20.0 19.2 15.2 74 2.8 SW 13 19 7 10 1016.5 1016.5 0.0
29/11:00pm 20.7 19.9 16.1 75 2.8 WSW 15 20 8 11 1016.5 1016.5 0.0
29/10:30pm 20.7 20.5 17.7 83 1.8 WSW 15 20 8 11 1016.6 1016.6 0.0
29/10:00pm 20.9 20.4 17.9 83 1.9 WSW 17 22 9 12 1016.6 1016.6 0.0
29/09:30pm 21.0 20.2 18.0 83 1.9 WSW 19 26 10 14 1016.6 1016.6 0.0
29/09:00pm 21.0 19.9 17.8 82 2.0 W 20 28 11 15 1016.4 1016.4 0.0
29/08:30pm 21.1 20.0 17.3 79 2.3 W 19 30 10 16 1016.2 1016.2 0.0
29/08:00pm 21.3 19.9 16.9 76 2.7 W 20 32 11 17 1015.9 1015.9 0.0
29/07:30pm 21.4 19.4 16.4 73 3.0 W 22 30 12 16 1015.6 1015.6 0.0
29/07:00pm 21.6 19.8 16.1 71 3.3 W 20 32 11 17 1015.2 1015.2 0.0
29/06:30pm 21.8 19.5 15.6 68 3.7 W 22 33 12 18 1014.9 1014.9 0.0
29/06:00pm 22.2 18.5 15.1 64 4.2 W 28 37 15 20 1014.5 1014.5 0.0
29/05:30pm 22.8 19.6 15.4 63 4.4 W 26 35 14 19 1014.2 1014.2 0.0
29/05:00pm 23.5 20.1 15.8 62 4.6 WNW 28 37 15 20 1014.0 1014.0 0.0
29/04:30pm 24.3 20.8 15.5 58 5.3 WNW 28 39 15 21 1013.8 1013.8 0.0
29/04:00pm 24.6 20.8 14.7 54 5.9 WNW 28 39 15 21 1013.8 1013.8 0.0
29/03:30pm 25.1 20.6 13.9 49 6.6 WNW 30 41 16 22 1013.6 1013.6 0.0
29/03:00pm 25.4 21.5 14.5 51 6.5 WNW 28 39 15 21 1013.9 1013.9 0.0
29/02:30pm 25.6 21.9 13.8 48 7.0 WNW 26 37 14 20 1014.2 1014.2 0.0
29/02:00pm 25.5 21.7 13.7 48 6.9 WNW 26 33 14 18 1014.5 1014.5 0.0
29/01:30pm 26.0 22.1 13.2 45 7.5 WNW 26 35 14 19 1014.9 1014.9 0.0
29/01:00pm 26.8 23.3 12.1 40 8.5 W 22 30 12 16 1015.2 1015.2 0.0
29/12:30pm 27.1 23.5 8.5 31 10.1 SW 17 26 9 14 1015.6 1015.6 0.0
29/12:00pm 26.1 23.8 10.3 37 8.8 WSW 13 20 7 11 1016.1 1016.1 0.0
29/11:30am 25.8 23.6 10.8 39 8.4 SSW 13 26 7 14 1016.6 1016.6 0.0
29/11:00am 24.1 22.0 11.1 44 7.3 SSW 13 22 7 12 1017.2 1017.1 0.0
29/10:30am 23.9 21.8 11.3 45 7.1 SW 13 22 7 12 1017.5 1017.4 0.0
29/10:00am 23.1 20.3 12.7 52 5.9 SW 19 26 10 14 1017.7 1017.6 0.0
29/09:30am 22.4 20.1 12.9 55 5.4 SW 17 24 9 13 1017.9 1017.8 0.0
29/09:00am 21.5 19.3 14.4 64 4.1 SSW 19 24 10 13 1017.9 1017.8 0.0
29/08:30am 20.1 17.8 14.7 71 3.2 SSW 20 26 11 14 1017.7 1017.6 0.0
29/08:00am 19.0 17.6 15.5 80 2.1 SSW 17 24 9 13 1017.6 1017.5 0.0
29/07:30am 17.1 17.3 15.8 92 0.8 S 9 15 5 8 1017.2 1017.1 0.0
29/07:00am 15.5 16.1 15.3 99 0.1 SSW 6 6 3 3 1016.8 1016.8 0.0
29/06:30am 15.3 15.5 14.8 97 0.3 SSW 7 9 4 5 1016.5 1016.5 0.0
29/06:00am 15.8 16.0 14.8 94 0.6 SSW 7 11 4 6 1016.3 1016.3 0.0
29/05:30am 16.4 16.6 14.8 90 0.9 SW 7 11 4 6 1016.2 1016.2 0.0
29/05:00am 17.3 16.9 15.1 87 1.3 SW 11 15 6 8 1015.9 1015.9 0.0
29/04:30am 18.1 16.6 15.4 84 1.6 SSW 17 22 9 12 1015.8 1015.8 0.0
29/04:00am 18.8 16.9 15.3 80 2.1 SSW 19 26 10 14 1015.8 1015.8 0.0
29/03:30am 19.0 17.1 15.1 78 2.3 SW 19 24 10 13 1015.9 1015.9 0.0
29/03:00am 19.1 18.0 15.2 78 2.3 SW 15 20 8 11 1016.0 1016.0 0.0
29/02:30am 19.3 19.6 16.0 81 2.0 SSW 9 13 5 7 1016.0 1016.0 0.0
29/02:00am 18.7 18.6 16.1 85 1.5 SSW 11 15 6 8 1016.3 1016.3 0.0
29/01:30am 19.4 19.8 16.4 83 1.8 SSW 9 11 5 6 1016.6 1016.6 0.0
29/01:00am 19.4 19.8 16.2 82 1.9 SW 9 11 5 6 1016.7 1016.7 0.0
29/12:30am 18.4 18.7 14.5 78 2.3 W 6 7 3 4 1017.0 1016.9 0.0
29/12:00am 18.3 19.3 14.4 78 2.2 W 2 4 1 2 1017.2 1017.1 0.0
 
Date/Time
WST
Temp
°C
App
Temp
°C
Dew
Point
Rel
Hum
%
Delta-T
°C
Wind Press
QNH
hPa
Press
MSL
hPa
Rain
since 9 am
mm
Dir
 
Spd
km/h
Gust
km/h
Spd
kts
Gust
kts
28/11:30pm 17.7 18.5 14.8 83 1.7 W 4 6 2 3 1017.4 1017.3 0.0
28/11:00pm 18.0 18.7 15.6 86 1.4 W 6 7 3 4 1017.4 1017.3 0.0
28/10:30pm 18.7 19.4 16.1 85 1.5 W 7 7 4 4 1017.4 1017.3 0.0
28/10:00pm 19.1 20.1 16.3 84 1.7 W 6 6 3 3 1017.5 1017.4 0.0
28/09:30pm 19.5 20.4 16.2 81 2.0 W 6 6 3 3 1017.4 1017.3 0.0
28/09:00pm 19.7 21.1 16.5 82 1.9 W 4 6 2 3 1017.2 1017.1 0.0
28/08:30pm 20.0 21.3 16.2 79 2.3 W 4 6 2 3 1017.0 1016.9 0.0
28/08:00pm 20.6 21.8 15.8 74 2.9 W 4 7 2 4 1016.6 1016.6 0.0
28/07:30pm 21.1 21.9 15.9 72 3.1 W 6 7 3 4 1016.0 1016.0 0.0
28/07:00pm 21.4 22.1 15.7 70 3.4 W 6 9 3 5 1015.7 1015.7 0.0
28/06:30pm 21.9 21.9 15.3 66 3.9 W 9 15 5 8 1015.3 1015.3 0.0
28/06:00pm 22.7 22.2 15.0 61 4.6 WNW 11 15 6 8 1014.9 1014.9 0.0
28/05:30pm 23.6 22.9 15.4 60 4.9 WNW 13 19 7 10 1014.8 1014.8 0.0
28/05:00pm 24.3 23.3 15.5 58 5.3 WNW 15 20 8 11 1014.6 1014.6 0.0
28/04:30pm 24.6 23.1 15.2 55 5.6 WNW 17 22 9 12 1014.4 1014.4 0.0
28/04:00pm 24.8 24.1 15.4 56 5.7 NW 13 22 7 12 1014.2 1014.2 0.0
28/03:30pm 25.1 24.2 14.9 53 6.1 NW 13 24 7 13 1014.3 1014.3 0.0
28/03:00pm 25.4 24.2 15.1 53 6.2 WNW 15 24 8 13 1014.3 1014.3 0.0
28/02:30pm 25.8 24.7 15.2 52 6.4 W 15 24 8 13 1014.4 1014.4 0.0
28/02:00pm 26.1 25.3 15.2 51 6.6 WNW 13 24 7 13 1014.6 1014.6 0.0
28/01:30pm 25.1 24.3 15.1 53 6.0 WNW 13 26 7 14 1015.0 1015.0 0.0
28/01:00pm 25.2 23.6 14.9 52 6.2 WNW 17 28 9 15 1015.2 1015.2 0.0
28/12:30pm 25.8 24.5 14.9 51 6.5 WNW 15 22 8 12 1015.4 1015.4 0.0
28/12:00pm 25.3 23.9 14.4 50 6.5 WNW 15 26 8 14 1015.8 1015.8 0.0
28/11:30am 25.5 24.4 15.2 53 6.2 NW 15 22 8 12 1015.9 1015.9 0.0
28/11:00am 24.7 23.4 14.8 54 5.9 NW 15 20 8 11 1016.2 1016.2 0.0
28/10:30am 24.8 25.1 15.1 54 5.8 NW 7 15 4 8 1016.6 1016.6 0.0
28/10:00am 23.9 24.9 16.4 63 4.6 WNW 6 11 3 6 1016.8 1016.8 0.0
28/09:30am 22.9 23.6 16.2 66 4.1 WSW 7 13 4 7 1017.0 1016.9 0.0
28/09:00am 22.6 24.0 17.3 72 3.3 SSW 6 11 3 6 1016.7 1016.7 0.0
28/08:30am 21.9 23.9 17.9 78 2.5 NNW 4 7 2 4 1016.6 1016.6 0.0
28/08:00am 20.1 22.3 18.4 90 1.1 NNW 4 6 2 3 1016.5 1016.5 0.0
28/07:30am 18.3 20.5 18.3 100 0.0 NNW 4 6 2 3 1016.2 1016.2 0.0
28/07:00am 15.9 16.7 15.9 100 0.0 NW 6 7 3 4 1015.8 1015.8 0.0
28/06:30am 14.7 15.0 14.5 99 0.1 NW 6 6 3 3 1015.6 1015.6 0.0
28/06:00am 14.8 14.8 14.3 97 0.3 NW 7 9 4 5 1015.3 1015.3 0.0
28/05:30am 15.2 15.2 14.2 94 0.6 NW 7 7 4 4 1015.1 1015.1 0.0
28/05:00am 15.1 14.7 13.1 88 1.1 NW 7 7 4 4 1014.9 1014.9 0.0
28/04:30am 14.9 14.7 12.9 88 1.1 NW 6 6 3 3 1014.7 1014.7 0.0
28/04:00am 15.4 15.7 13.4 88 1.1 NW 4 6 2 3 1014.7 1014.7 0.0
28/03:30am 15.4 15.6 13.1 86 1.3 NW 4 4 2 2 1014.8 1014.8 0.0
28/03:00am 15.6 15.5 13.4 87 1.2 NW 6 6 3 3 1014.8 1014.8 0.0
28/02:30am 16.0 16.2 14.2 89 1.0 NW 6 7 3 4 1015.1 1015.1 0.0
28/02:00am 15.9 15.4 13.7 87 1.2 NW 9 9 5 5 1015.3 1015.3 0.0
28/01:30am 16.2 15.9 13.3 83 1.6 NW 7 7 4 4 1015.6 1015.6 0.0
28/01:00am 16.5 16.4 13.4 82 1.7 NW 6 7 3 4 1015.7 1015.7 0.0
28/12:30am 16.7 16.4 13.4 81 1.9 NW 7 7 4 4 1015.9 1015.9 0.0
28/12:00am 17.3 18.4 13.6 79 2.1 CALM 0 0 0 0 1016.0 1016.0 0.0
 
Date/Time
WST
Temp
°C
App
Temp
°C
Dew
Point
Rel
Hum
%
Delta-T
°C
Wind Press
QNH
hPa
Press
MSL
hPa
Rain
since 9 am
mm
Dir
 
Spd
km/h
Gust
km/h
Spd
kts
Gust
kts
27/11:30pm 18.0 19.4 14.5 80 2.0 CALM 0 0 0 0 1016.2 1016.2 0.0
27/11:00pm 18.5 19.9 15.4 82 1.8 NW 2 4 1 2 1016.4 1016.4 0.0
27/10:30pm 18.8 19.8 16.4 86 1.4 NW 6 6 3 3 1016.4 1016.4 0.0
27/10:00pm 19.5 20.8 17.6 89 1.2 NW 7 7 4 4 1016.5 1016.5 0.0
27/09:30pm 19.6 20.9 17.0 85 1.6 NW 6 7 3 4 1016.5 1016.5 0.0
27/09:00pm 20.0 21.3 17.2 84 1.7 NW 6 6 3 3 1016.6 1016.6 0.0
27/08:30pm 20.3 21.9 16.9 81 2.1 NW 4 6 2 3 1016.5 1016.5 0.0
27/08:00pm 20.4 21.7 17.0 81 2.1 NNW 6 6 3 3 1016.3 1016.3 0.0
27/07:30pm 20.7 21.8 16.5 77 2.5 NNW 6 7 3 4 1016.0 1016.0 0.0
27/07:00pm 21.3 22.7 16.3 73 3.0 NNW 4 6 2 3 1015.7 1015.7 0.0
27/06:30pm 22.2 23.1 16.5 70 3.5 NNW 7 9 4 5 1015.4 1015.4 0.0
27/06:00pm 23.0 22.8 15.8 64 4.3 NNW 11 15 6 8 1015.1 1015.1 0.0
27/05:30pm 24.0 23.6 16.3 62 4.7 NNW 13 19 7 10 1014.8 1014.8 0.0
27/05:00pm 24.8 23.4 14.6 53 6.1 NNW 15 24 8 13 1014.6 1014.6 0.0
27/04:30pm 25.6 24.1 14.1 49 6.8 NNW 15 24 8 13 1014.3 1014.3 0.0
27/04:00pm 26.5 24.5 13.9 45 7.5 N 17 28 9 15 1014.2 1014.2 0.0
27/03:30pm 26.9 24.6 12.9 42 8.2 N 17 26 9 14 1014.3 1014.3 0.0
27/03:00pm 27.7 24.9 12.5 39 8.9 NNE 19 30 10 16 1014.3 1014.3 0.0
27/02:30pm 26.6 24.7 13.0 43 7.9 N 15 24 8 13 1014.5 1014.5 0.0
27/02:00pm 27.4 25.4 12.6 40 8.6 N 15 28 8 15 1014.7 1014.7 0.0
27/01:30pm 27.4 25.2 12.2 39 8.8 N 15 26 8 14 1015.0 1015.0 0.0
27/01:00pm 26.4 24.8 13.9 46 7.4 NNW 15 24 8 13 1015.2 1015.2 0.0
27/12:30pm 27.1 26.3 15.1 47 7.3 NNW 13 24 7 13 1015.5 1015.5 0.0
27/12:00pm 26.1 24.7 15.5 52 6.4 NW 17 26 9 14 1015.9 1015.9 0.0

Other Formats:

Comma delimited format used in spreadsheet applications
http://www.bom.gov.au/fwo/IDW60801/IDW60801.94306.axf

JavaScript Object Notation format (JSON) in row-major order
http://www.bom.gov.au/fwo/IDW60801/IDW60801.94306.json